createdAt,value
2018-11-07T00:00:16.532Z,30.70
2018-11-07T00:01:16.500Z,28.80
2018-11-07T00:02:16.462Z,29.50
2018-11-07T00:03:16.429Z,27.80
2018-11-07T00:04:16.400Z,27.30
2018-11-07T00:05:16.357Z,26.00
2018-11-07T00:06:16.318Z,28.20
2018-11-07T00:07:16.284Z,26.80
2018-11-07T00:08:16.406Z,27.30
2018-11-07T00:09:16.227Z,27.50
2018-11-07T00:10:16.175Z,26.70
2018-11-07T00:11:16.141Z,24.80
2018-11-07T00:12:16.110Z,27.10
2018-11-07T00:13:16.074Z,26.90
2018-11-07T00:14:16.035Z,27.60
2018-11-07T00:15:16.011Z,26.10
2018-11-07T00:16:15.972Z,26.50
2018-11-07T00:17:15.930Z,26.20
2018-11-07T00:18:15.894Z,27.60
2018-11-07T00:19:15.858Z,25.70
2018-11-07T00:20:15.831Z,26.00
2018-11-07T00:21:15.792Z,26.80
2018-11-07T00:22:15.758Z,24.80
2018-11-07T00:23:15.719Z,25.40
2018-11-07T00:24:15.683Z,25.40
2018-11-07T00:25:15.657Z,25.60
2018-11-07T00:26:15.636Z,27.80
2018-11-07T00:27:15.578Z,25.90
2018-11-07T00:28:15.538Z,25.70
2018-11-07T00:29:15.505Z,27.60
2018-11-07T00:30:15.600Z,25.70
2018-11-07T00:31:15.432Z,28.10
2018-11-07T00:32:15.404Z,28.70
2018-11-07T00:33:15.363Z,27.50
2018-11-07T00:34:15.330Z,27.60
2018-11-07T00:35:15.427Z,25.00
2018-11-07T00:36:15.255Z,27.20
2018-11-07T00:37:15.220Z,26.80
2018-11-07T00:38:15.183Z,24.90
2018-11-07T00:39:15.153Z,25.50
2018-11-07T00:40:15.134Z,26.10
2018-11-07T00:41:15.081Z,28.40
2018-11-07T00:42:15.105Z,26.90
2018-11-07T00:43:15.011Z,26.20
2018-11-07T00:44:14.973Z,26.70
2018-11-07T00:45:14.937Z,27.60
2018-11-07T00:46:14.912Z,28.30
2018-11-07T00:47:14.866Z,26.90
2018-11-07T00:48:14.841Z,25.90
2018-11-07T00:49:14.794Z,26.80
2018-11-07T00:50:14.758Z,27.20
2018-11-07T00:51:14.747Z,27.10
2018-11-07T00:52:14.690Z,24.20
2018-11-07T00:53:14.652Z,25.40
2018-11-07T00:54:14.619Z,25.50
2018-11-07T00:55:14.584Z,26.00
2018-11-07T00:56:14.545Z,25.20
2018-11-07T00:57:14.518Z,25.00
2018-11-07T00:58:14.612Z,25.70
2018-11-07T00:59:14.440Z,27.00
2018-11-07T01:00:14.401Z,25.20
2018-11-07T01:01:14.374Z,25.50
2018-11-07T01:02:14.338Z,24.60
2018-11-07T01:03:14.295Z,24.80
2018-11-07T01:04:14.260Z,24.30
2018-11-07T01:05:14.234Z,24.30
2018-11-07T01:06:14.188Z,24.30
2018-11-07T01:07:14.172Z,24.80
2018-11-07T01:08:14.117Z,23.50
2018-11-07T01:09:14.084Z,24.00
2018-11-07T01:10:14.044Z,24.60
2018-11-07T01:11:14.012Z,25.30
2018-11-07T01:12:13.982Z,25.40
2018-11-07T01:13:13.943Z,23.60
2018-11-07T01:14:13.902Z,24.70
2018-11-07T01:15:13.867Z,23.90
2018-11-07T01:16:13.831Z,24.20
2018-11-07T01:17:13.805Z,23.70
2018-11-07T01:18:13.760Z,21.60
2018-11-07T01:19:13.723Z,23.10
2018-11-07T01:20:13.687Z,22.40
2018-11-07T01:21:13.651Z,21.60
2018-11-07T01:22:13.642Z,25.50
2018-11-07T01:23:13.582Z,24.40
2018-11-07T01:24:13.547Z,23.50
2018-11-07T01:25:13.510Z,23.60
2018-11-07T01:26:13.473Z,26.50
2018-11-07T01:27:13.453Z,24.50
2018-11-07T01:28:13.456Z,23.90
2018-11-07T01:29:13.365Z,23.70
2018-11-07T01:30:13.336Z,23.10
2018-11-07T01:31:13.295Z,24.10
2018-11-07T01:32:13.260Z,23.60
2018-11-07T01:33:13.233Z,21.80
2018-11-07T01:34:13.189Z,21.60
2018-11-07T01:35:13.154Z,23.50
2018-11-07T01:36:13.116Z,22.90
2018-11-07T01:37:13.082Z,23.70
2018-11-07T01:38:13.058Z,21.80
2018-11-07T01:39:13.013Z,20.10
2018-11-07T01:40:12.974Z,21.50
2018-11-07T01:41:12.936Z,23.80
2018-11-07T01:42:12.951Z,23.90
2018-11-07T01:43:12.890Z,22.90
2018-11-07T01:44:12.831Z,22.50
2018-11-07T01:45:12.796Z,22.70
2018-11-07T01:46:12.759Z,22.70
2018-11-07T01:47:12.725Z,22.70
2018-11-07T01:48:12.688Z,22.50
2018-11-07T01:49:12.663Z,23.90
2018-11-07T01:50:12.616Z,23.60
2018-11-07T01:51:12.583Z,24.90
2018-11-07T01:52:12.547Z,23.30
2018-11-07T01:53:12.511Z,25.20
2018-11-07T01:54:12.491Z,23.50
2018-11-07T01:55:12.441Z,23.10
2018-11-07T01:56:12.404Z,23.10
2018-11-07T01:57:12.367Z,22.90
2018-11-07T01:58:12.330Z,23.80
2018-11-07T01:59:12.307Z,24.20
2018-11-07T02:00:12.265Z,23.70
2018-11-07T02:01:12.231Z,23.40
2018-11-07T02:02:12.189Z,22.90
2018-11-07T02:03:12.152Z,22.80
2018-11-07T02:04:12.132Z,24.00
2018-11-07T02:05:12.084Z,22.90
2018-11-07T02:06:12.047Z,25.00
2018-11-07T02:07:12.015Z,23.50
2018-11-07T02:08:11.975Z,22.60
2018-11-07T02:09:11.949Z,23.80
2018-11-07T02:10:11.905Z,22.40
2018-11-07T02:11:11.869Z,22.20
2018-11-07T02:12:11.829Z,22.60
2018-11-07T02:13:11.802Z,22.50
2018-11-07T02:14:11.774Z,23.50
2018-11-07T02:15:11.725Z,22.10
2018-11-07T02:16:11.696Z,22.40
2018-11-07T02:17:11.655Z,23.70
2018-11-07T02:18:11.624Z,24.90
2018-11-07T02:19:11.607Z,22.50
2018-11-07T02:20:11.545Z,25.60
2018-11-07T02:21:11.511Z,28.00
2018-11-07T02:22:11.475Z,25.60
2018-11-07T02:23:11.440Z,25.70
2018-11-07T02:24:11.407Z,25.40
2018-11-07T02:25:11.374Z,23.80
2018-11-07T02:26:11.387Z,27.30
2018-11-07T02:27:11.296Z,27.20
2018-11-07T02:28:11.261Z,25.80
2018-11-07T02:29:11.227Z,26.80
2018-11-07T02:30:11.203Z,27.10
2018-11-07T02:31:11.157Z,25.20
2018-11-07T02:32:11.117Z,24.70
2018-11-07T02:33:11.083Z,24.50
2018-11-07T02:34:11.049Z,24.70
2018-11-07T02:35:11.035Z,24.30
2018-11-07T02:36:10.976Z,23.40
2018-11-07T02:37:10.983Z,22.50
2018-11-07T02:38:10.904Z,22.30
2018-11-07T02:39:10.867Z,23.20
2018-11-07T02:40:10.832Z,25.00
2018-11-07T02:41:10.804Z,27.80
2018-11-07T02:42:10.760Z,28.80
2018-11-07T02:43:10.729Z,27.20
2018-11-07T02:44:10.688Z,26.30
2018-11-07T02:45:10.657Z,23.60
2018-11-07T02:46:10.625Z,24.20
2018-11-07T02:47:10.579Z,24.90
2018-11-07T02:48:10.548Z,23.80
2018-11-07T02:49:10.513Z,25.00
2018-11-07T02:50:10.476Z,24.40
2018-11-07T02:51:10.465Z,24.40
2018-11-07T02:52:10.404Z,27.40
2018-11-07T02:53:10.414Z,26.80
2018-11-07T02:54:10.327Z,28.10
2018-11-07T02:55:10.295Z,29.70
2018-11-07T02:56:10.259Z,29.00
2018-11-07T02:57:10.231Z,31.80
2018-11-07T02:58:10.188Z,30.50
2018-11-07T02:59:10.150Z,29.60
2018-11-07T03:00:10.114Z,29.40
2018-11-07T03:01:10.093Z,27.50
2018-11-07T03:02:10.051Z,28.00
2018-11-07T03:03:10.007Z,28.30
2018-11-07T03:04:09.972Z,28.40
2018-11-07T03:05:09.933Z,28.50
2018-11-07T03:06:09.897Z,27.50
2018-11-07T03:07:09.887Z,26.80
2018-11-07T03:08:09.825Z,27.80
2018-11-07T03:09:09.789Z,25.50
2018-11-07T03:10:09.774Z,25.60
2018-11-07T03:11:09.721Z,25.30
2018-11-07T03:12:09.680Z,25.20
2018-11-07T03:13:09.653Z,25.60
2018-11-07T03:14:09.607Z,25.00
2018-11-07T03:15:09.576Z,25.50
2018-11-07T03:16:09.535Z,27.40
2018-11-07T03:17:09.502Z,28.20
2018-11-07T03:18:09.472Z,27.70
2018-11-07T03:19:09.428Z,27.70
2018-11-07T03:20:09.392Z,28.10
2018-11-07T03:21:09.361Z,24.80
2018-11-07T03:22:09.322Z,28.60
2018-11-07T03:23:09.292Z,27.60
2018-11-07T03:24:09.247Z,26.90
2018-11-07T03:25:09.214Z,28.70
2018-11-07T03:26:09.174Z,30.20
2018-11-07T03:27:09.142Z,32.90
2018-11-07T03:28:09.110Z,30.00
2018-11-07T03:29:09.069Z,27.50
2018-11-07T03:30:09.081Z,26.30
2018-11-07T03:31:08.993Z,25.20
2018-11-07T03:32:08.967Z,27.70
2018-11-07T03:33:08.937Z,29.10
2018-11-07T03:34:08.884Z,28.50
2018-11-07T03:35:08.848Z,27.90
2018-11-07T03:36:08.814Z,26.50
2018-11-07T03:37:08.780Z,26.70
2018-11-07T03:38:08.741Z,26.90
2018-11-07T03:39:08.718Z,26.90
2018-11-07T03:40:08.707Z,27.50
2018-11-07T03:41:08.639Z,28.40
2018-11-07T03:42:08.596Z,27.70
2018-11-07T03:43:08.563Z,29.40
2018-11-07T03:44:08.533Z,28.40
2018-11-07T03:45:08.489Z,30.40
2018-11-07T03:46:08.449Z,30.00
2018-11-07T03:47:08.413Z,27.80
2018-11-07T03:48:08.375Z,29.50
2018-11-07T03:49:08.352Z,31.40
2018-11-07T03:50:08.304Z,32.30
2018-11-07T03:51:08.263Z,32.50
2018-11-07T03:52:08.231Z,31.70
2018-11-07T03:53:08.249Z,29.80
2018-11-07T03:54:08.176Z,30.20
2018-11-07T03:55:08.124Z,29.90
2018-11-07T03:56:08.083Z,34.60
2018-11-07T03:57:08.058Z,35.20
2018-11-07T03:58:08.013Z,32.20
2018-11-07T03:59:07.984Z,33.20
2018-11-07T04:00:07.938Z,33.50
2018-11-07T04:01:07.902Z,31.00
2018-11-07T04:02:07.867Z,31.80
2018-11-07T04:03:07.828Z,30.90
2018-11-07T04:04:07.807Z,31.00
2018-11-07T04:05:07.756Z,30.10
2018-11-07T04:06:07.719Z,31.50
2018-11-07T04:07:07.683Z,30.50
2018-11-07T04:08:07.654Z,31.90
2018-11-07T04:09:07.610Z,32.20
2018-11-07T04:10:07.591Z,30.80
2018-11-07T04:11:07.537Z,31.40
2018-11-07T04:12:07.500Z,35.30
2018-11-07T04:13:07.461Z,36.70
2018-11-07T04:14:07.426Z,35.60
2018-11-07T04:15:07.399Z,37.00
2018-11-07T04:16:07.356Z,39.30
2018-11-07T04:17:07.372Z,39.40
2018-11-07T04:18:07.278Z,38.60
2018-11-07T04:19:07.242Z,36.50
2018-11-07T04:20:07.231Z,34.00
2018-11-07T04:21:07.170Z,35.00
2018-11-07T04:22:07.150Z,32.80
2018-11-07T04:23:07.095Z,34.20
2018-11-07T04:24:07.061Z,34.50
2018-11-07T04:25:07.024Z,34.30
2018-11-07T04:26:06.994Z,32.50
2018-11-07T04:27:06.949Z,30.70
2018-11-07T04:28:06.912Z,30.80
2018-11-07T04:29:06.880Z,29.70
2018-11-07T04:30:06.837Z,29.60
2018-11-07T04:31:06.813Z,29.30
2018-11-07T04:32:06.767Z,29.40
2018-11-07T04:33:06.726Z,31.50
2018-11-07T04:34:06.691Z,31.00
2018-11-07T04:35:06.652Z,29.40
2018-11-07T04:36:06.629Z,29.70
2018-11-07T04:37:06.578Z,29.50
2018-11-07T04:38:06.543Z,29.80
2018-11-07T04:39:06.537Z,31.40
2018-11-07T04:40:06.470Z,30.80
2018-11-07T04:41:06.445Z,31.60
2018-11-07T04:42:06.398Z,32.10
2018-11-07T04:43:06.363Z,34.60
2018-11-07T04:44:06.320Z,35.90
2018-11-07T04:45:06.285Z,37.50
2018-11-07T04:46:06.270Z,36.00
2018-11-07T04:47:06.212Z,31.90
2018-11-07T04:48:06.175Z,27.50
2018-11-07T04:49:06.138Z,32.30
2018-11-07T04:50:06.103Z,34.50
2018-11-07T04:51:06.066Z,37.40
2018-11-07T04:52:06.042Z,36.80
2018-11-07T04:53:05.992Z,36.70
2018-11-07T04:54:05.954Z,37.20
2018-11-07T04:55:05.946Z,35.30
2018-11-07T04:56:05.880Z,35.10
2018-11-07T04:57:05.853Z,34.40
2018-11-07T04:58:05.808Z,33.40
2018-11-07T04:59:05.770Z,33.00
2018-11-07T05:00:05.775Z,34.70
2018-11-07T05:01:05.701Z,33.90
2018-11-07T05:02:05.668Z,31.90
2018-11-07T05:03:05.632Z,31.50
2018-11-07T05:04:05.589Z,31.70
2018-11-07T05:05:05.550Z,31.20
2018-11-07T05:06:05.516Z,30.30
2018-11-07T05:07:05.497Z,29.40
2018-11-07T05:08:05.443Z,26.60
2018-11-07T05:09:05.405Z,27.20
2018-11-07T05:10:05.369Z,26.00
2018-11-07T05:11:05.338Z,24.90
2018-11-07T05:12:05.295Z,24.80
2018-11-07T05:13:05.268Z,23.80
2018-11-07T05:14:05.221Z,23.40
2018-11-07T05:15:05.184Z,25.60
2018-11-07T05:16:05.150Z,25.40
2018-11-07T05:17:05.112Z,25.00
2018-11-07T05:18:05.092Z,26.90
2018-11-07T05:19:05.039Z,29.00
2018-11-07T05:20:05.002Z,26.50
2018-11-07T05:21:04.971Z,26.60
2018-11-07T05:22:04.940Z,27.20
2018-11-07T05:23:04.904Z,27.40
2018-11-07T05:24:04.860Z,26.70
2018-11-07T05:25:04.821Z,28.10
2018-11-07T05:26:04.794Z,26.10
2018-11-07T05:27:04.747Z,27.50
2018-11-07T05:28:04.724Z,26.80
2018-11-07T05:29:04.674Z,26.30
2018-11-07T05:30:04.638Z,27.40
2018-11-07T05:31:04.600Z,27.90
2018-11-07T05:32:04.647Z,28.70
2018-11-07T05:33:04.538Z,29.50
2018-11-07T05:34:04.492Z,28.80
2018-11-07T05:35:04.459Z,30.40
2018-11-07T05:36:04.419Z,28.60
2018-11-07T05:37:04.385Z,30.70
2018-11-07T05:38:04.355Z,30.20
2018-11-07T05:39:04.309Z,28.40
2018-11-07T05:40:04.272Z,29.10
2018-11-07T05:41:04.250Z,28.20
2018-11-07T05:42:04.217Z,28.90
2018-11-07T05:43:04.166Z,30.00
2018-11-07T05:44:04.132Z,30.30
2018-11-07T05:45:04.090Z,29.40
2018-11-07T05:46:04.052Z,29.70
2018-11-07T05:47:04.032Z,26.70
2018-11-07T05:48:03.980Z,26.60
2018-11-07T05:49:03.970Z,27.50
2018-11-07T05:50:03.908Z,26.50
2018-11-07T05:51:03.874Z,26.40
2018-11-07T05:52:03.848Z,25.20
2018-11-07T05:53:03.800Z,25.90
2018-11-07T05:54:03.760Z,23.20
2018-11-07T05:55:03.735Z,25.50
2018-11-07T05:56:03.694Z,25.50
2018-11-07T05:57:03.653Z,25.40
2018-11-07T05:58:03.616Z,23.50
2018-11-07T05:59:03.580Z,22.60
2018-11-07T06:00:03.556Z,23.40
2018-11-07T06:01:03.507Z,22.30
2018-11-07T06:02:03.470Z,23.10
2018-11-07T06:03:03.441Z,22.30
2018-11-07T06:04:03.400Z,21.90
2018-11-07T06:05:03.371Z,21.70
2018-11-07T06:06:03.325Z,21.40
2018-11-07T06:07:03.290Z,21.80
2018-11-07T06:08:03.259Z,20.50
2018-11-07T06:09:03.217Z,21.70
2018-11-07T06:10:03.190Z,20.20
2018-11-07T06:11:03.145Z,20.40
2018-11-07T06:12:03.109Z,20.30
2018-11-07T06:13:03.112Z,19.50
2018-11-07T06:14:03.093Z,20.80
2018-11-07T06:15:03.097Z,20.20
2018-11-07T06:16:02.976Z,19.10
2018-11-07T06:17:02.928Z,18.80
2018-11-07T06:18:02.894Z,18.60
2018-11-07T06:19:02.857Z,19.60
2018-11-07T06:20:02.830Z,18.00
2018-11-07T06:21:02.783Z,18.80
2018-11-07T06:22:02.746Z,19.10
2018-11-07T06:23:02.787Z,19.20
2018-11-07T06:24:02.676Z,18.70
2018-11-07T06:25:02.779Z,18.50
2018-11-07T06:26:02.608Z,19.40
2018-11-07T06:27:02.568Z,18.40
2018-11-07T06:28:02.534Z,19.00
2018-11-07T06:29:02.500Z,18.40
2018-11-07T06:30:02.505Z,18.30
2018-11-07T06:31:02.436Z,18.30
2018-11-07T06:32:02.388Z,17.30
2018-11-07T06:33:02.357Z,18.40
2018-11-07T06:34:02.336Z,18.30
2018-11-07T06:35:02.289Z,18.80
2018-11-07T06:36:02.257Z,18.70
2018-11-07T06:37:02.216Z,18.20
2018-11-07T06:38:02.179Z,18.10
2018-11-07T06:39:02.139Z,17.30
2018-11-07T06:40:02.107Z,16.50
2018-11-07T06:41:02.078Z,18.20
2018-11-07T06:42:02.034Z,18.70
2018-11-07T06:43:02.002Z,17.90
2018-11-07T06:44:02.060Z,18.10
2018-11-07T06:45:01.925Z,17.90
2018-11-07T06:46:01.915Z,17.30
2018-11-07T06:47:01.854Z,17.70
2018-11-07T06:48:01.859Z,16.90
2018-11-07T06:49:01.809Z,21.20
2018-11-07T06:50:01.753Z,19.60
2018-11-07T06:51:01.712Z,18.70
2018-11-07T06:52:01.687Z,19.90
2018-11-07T06:53:01.640Z,18.80
2018-11-07T06:54:01.606Z,20.50
2018-11-07T06:55:01.597Z,20.50
2018-11-07T06:56:01.532Z,20.60
2018-11-07T06:57:01.508Z,20.40
2018-11-07T06:58:01.462Z,20.30
2018-11-07T06:59:01.428Z,20.30
2018-11-07T07:00:01.394Z,20.30
2018-11-07T07:01:01.353Z,19.10
2018-11-07T07:02:01.330Z,21.10
2018-11-07T07:03:01.284Z,21.60
2018-11-07T07:04:01.249Z,19.70
2018-11-07T07:05:01.212Z,18.80
2018-11-07T07:06:01.176Z,20.10
2018-11-07T07:07:01.153Z,19.80
2018-11-07T07:08:01.108Z,18.10
2018-11-07T07:09:01.068Z,18.90
2018-11-07T07:10:01.031Z,18.70
2018-11-07T07:11:01.004Z,18.40
2018-11-07T07:12:00.968Z,17.60
2018-11-07T07:13:00.928Z,17.70
2018-11-07T07:14:00.890Z,18.70
2018-11-07T07:15:00.852Z,18.20
2018-11-07T07:16:00.818Z,18.00
2018-11-07T07:17:00.790Z,18.20
2018-11-07T07:18:00.798Z,19.30
2018-11-07T07:19:00.707Z,19.10
2018-11-07T07:20:00.677Z,16.80
2018-11-07T07:21:00.639Z,18.80
2018-11-07T07:22:00.611Z,18.00
2018-11-07T07:23:00.565Z,17.40
2018-11-07T07:24:00.536Z,17.50
2018-11-07T07:25:00.492Z,17.20
2018-11-07T07:26:00.462Z,19.00
2018-11-07T07:27:00.443Z,16.10
2018-11-07T07:28:00.384Z,18.20
2018-11-07T07:29:00.351Z,18.00
2018-11-07T07:30:00.380Z,18.10
2018-11-07T07:31:00.279Z,20.40
2018-11-07T07:32:00.245Z,19.70
2018-11-07T07:33:00.229Z,18.50
2018-11-07T07:34:00.170Z,19.50
2018-11-07T07:35:00.133Z,19.90
2018-11-07T07:36:00.097Z,17.90
2018-11-07T07:37:00.058Z,17.30
2018-11-07T07:38:00.037Z,17.40
2018-11-07T07:38:59.988Z,16.90
2018-11-07T07:39:59.958Z,17.10
2018-11-07T07:40:59.916Z,16.90
2018-11-07T07:41:59.877Z,16.60
2018-11-07T07:42:59.855Z,17.70
2018-11-07T07:43:59.807Z,17.10
2018-11-07T07:44:59.773Z,18.70
2018-11-07T07:45:59.735Z,16.60
2018-11-07T07:46:59.700Z,16.20
2018-11-07T07:47:59.674Z,14.70
2018-11-07T07:48:59.637Z,14.10
2018-11-07T07:49:59.591Z,14.70
2018-11-07T07:50:59.555Z,12.70
2018-11-07T07:51:59.523Z,13.60
2018-11-07T07:52:59.504Z,13.60
2018-11-07T07:53:59.446Z,13.00
2018-11-07T07:54:59.413Z,12.80
2018-11-07T07:55:59.375Z,13.70
2018-11-07T07:56:59.342Z,13.50
2018-11-07T07:57:59.316Z,13.50
2018-11-07T07:58:59.275Z,13.20
2018-11-07T07:59:59.231Z,14.20
2018-11-07T08:00:59.197Z,14.40
2018-11-07T08:01:59.160Z,14.00
2018-11-07T08:02:59.147Z,15.10
2018-11-07T08:03:59.090Z,14.80
2018-11-07T08:04:59.056Z,15.60
2018-11-07T08:05:59.022Z,14.60
2018-11-07T08:06:59.048Z,12.90
2018-11-07T08:07:58.947Z,12.50
2018-11-07T08:08:58.923Z,13.20
2018-11-07T08:09:58.875Z,12.10
2018-11-07T08:10:58.841Z,11.90
2018-11-07T08:11:58.801Z,12.50
2018-11-07T08:12:58.769Z,12.20
2018-11-07T08:13:58.758Z,12.10
2018-11-07T08:14:58.695Z,14.30
2018-11-07T08:15:58.661Z,11.90
2018-11-07T08:16:58.625Z,12.00
2018-11-07T08:17:58.590Z,11.40
2018-11-07T08:18:58.574Z,12.10
2018-11-07T08:19:58.525Z,12.40
2018-11-07T08:20:58.488Z,10.80
2018-11-07T08:21:58.451Z,12.30
2018-11-07T08:22:58.413Z,13.10
2018-11-07T08:23:58.391Z,12.70
2018-11-07T08:24:58.342Z,12.60
2018-11-07T08:25:58.304Z,12.30
2018-11-07T08:26:58.272Z,12.10
2018-11-07T08:27:58.235Z,12.20
2018-11-07T08:28:58.233Z,12.30
2018-11-07T08:29:58.166Z,12.00
2018-11-07T08:30:58.149Z,12.60
2018-11-07T08:31:58.110Z,12.00
2018-11-07T08:32:58.059Z,10.40
2018-11-07T08:33:58.037Z,9.90
2018-11-07T08:34:57.993Z,10.90
2018-11-07T08:35:57.956Z,9.40
2018-11-07T08:36:57.919Z,9.50
2018-11-07T08:37:57.886Z,9.60
2018-11-07T08:38:57.873Z,9.60
2018-11-07T08:39:57.812Z,10.00
2018-11-07T08:40:57.777Z,8.50
2018-11-07T08:41:57.744Z,8.80
2018-11-07T08:42:57.706Z,9.90
2018-11-07T08:43:57.673Z,8.60
2018-11-07T08:44:57.647Z,9.60
2018-11-07T08:45:57.605Z,9.60
2018-11-07T08:46:57.569Z,9.20
2018-11-07T08:47:57.547Z,8.30
2018-11-07T08:48:57.497Z,7.30
2018-11-07T08:49:57.471Z,8.20
2018-11-07T08:50:57.429Z,8.30
2018-11-07T08:51:57.392Z,8.00
2018-11-07T08:52:57.356Z,7.80
2018-11-07T08:53:57.324Z,7.70
2018-11-07T08:54:57.358Z,7.20
2018-11-07T08:55:57.259Z,7.10
2018-11-07T08:56:57.220Z,7.50
2018-11-07T08:57:57.185Z,6.40
2018-11-07T08:58:57.149Z,6.90
2018-11-07T08:59:57.117Z,6.90
2018-11-07T09:00:57.092Z,7.10
2018-11-07T09:01:57.058Z,6.20
2018-11-07T09:02:57.011Z,6.30
2018-11-07T09:03:56.980Z,7.30
2018-11-07T09:04:56.942Z,6.30
2018-11-07T09:05:56.915Z,6.90
2018-11-07T09:06:56.872Z,8.60
2018-11-07T09:07:56.839Z,8.50
2018-11-07T09:08:56.805Z,9.40
2018-11-07T09:09:56.768Z,9.50
2018-11-07T09:10:56.744Z,7.90
2018-11-07T09:11:56.753Z,7.60
2018-11-07T09:12:56.664Z,7.80
2018-11-07T09:13:56.632Z,8.50
2018-11-07T09:14:56.598Z,9.00
2018-11-07T09:15:56.578Z,9.30
2018-11-07T09:16:56.528Z,6.90
2018-11-07T09:17:56.493Z,6.50
2018-11-07T09:18:56.460Z,8.30
2018-11-07T09:19:56.444Z,9.40
2018-11-07T09:20:56.414Z,10.00
2018-11-07T09:21:56.357Z,7.10
2018-11-07T09:22:56.322Z,6.90
2018-11-07T09:23:56.289Z,6.50
2018-11-07T09:24:56.252Z,7.10
2018-11-07T09:25:56.223Z,7.90
2018-11-07T09:26:56.194Z,8.20
2018-11-07T09:27:56.151Z,9.40
2018-11-07T09:28:56.124Z,8.70
2018-11-07T09:29:56.083Z,7.50
2018-11-07T09:30:56.050Z,6.60
2018-11-07T09:31:56.024Z,5.70
2018-11-07T09:32:55.980Z,7.70
2018-11-07T09:33:55.949Z,8.40
2018-11-07T09:34:55.914Z,8.50
2018-11-07T09:35:55.883Z,7.70
2018-11-07T09:36:55.852Z,6.60
2018-11-07T09:37:55.810Z,6.20
2018-11-07T09:38:55.777Z,5.40
2018-11-07T09:39:55.744Z,6.40
2018-11-07T09:40:55.709Z,5.60
2018-11-07T09:41:55.686Z,4.90
2018-11-07T09:42:55.654Z,5.40
2018-11-07T09:43:55.608Z,5.40
2018-11-07T09:44:55.582Z,5.00
2018-11-07T09:45:55.540Z,4.70
2018-11-07T09:46:55.535Z,5.10
2018-11-07T09:47:55.473Z,6.90
2018-11-07T09:48:55.439Z,6.80
2018-11-07T09:49:55.406Z,4.90
2018-11-07T09:50:55.370Z,5.00
2018-11-07T09:51:55.343Z,4.40
2018-11-07T09:52:55.313Z,4.50
2018-11-07T09:53:55.319Z,6.20
2018-11-07T09:54:55.237Z,5.20
2018-11-07T09:55:55.201Z,4.20
2018-11-07T09:56:55.169Z,4.00
2018-11-07T09:57:55.144Z,4.30
2018-11-07T09:58:55.106Z,3.40
2018-11-07T09:59:55.073Z,3.90
2018-11-07T10:00:55.032Z,4.50
2018-11-07T10:01:55.003Z,3.30
2018-11-07T10:02:54.977Z,3.50
2018-11-07T10:03:54.933Z,3.40
2018-11-07T10:04:54.905Z,3.80
2018-11-07T10:05:54.872Z,3.20
2018-11-07T10:06:54.833Z,3.70
2018-11-07T10:07:54.810Z,2.90
2018-11-07T10:08:54.771Z,3.80
2018-11-07T10:09:54.731Z,3.00
2018-11-07T10:10:54.700Z,3.60
2018-11-07T10:11:54.668Z,3.00
2018-11-07T10:12:54.647Z,2.70
2018-11-07T10:13:54.599Z,3.10
2018-11-07T10:14:54.568Z,3.10
2018-11-07T10:15:54.533Z,2.50
2018-11-07T10:16:54.510Z,3.10
2018-11-07T10:17:54.467Z,3.10
2018-11-07T10:18:54.441Z,3.50
2018-11-07T10:19:54.400Z,3.20
2018-11-07T10:20:54.369Z,3.20
2018-11-07T10:21:54.332Z,3.00
2018-11-07T10:22:54.301Z,3.30
2018-11-07T10:23:54.283Z,3.10
2018-11-07T10:24:54.233Z,3.50
2018-11-07T10:25:54.201Z,3.00
2018-11-07T10:26:54.256Z,3.10
2018-11-07T10:27:54.545Z,3.50
2018-11-07T10:28:54.464Z,2.80
2018-11-07T10:29:54.400Z,2.70
2018-11-07T10:30:54.039Z,3.30
2018-11-07T10:31:54.001Z,2.90
2018-11-07T10:32:53.975Z,2.70
2018-11-07T10:33:53.951Z,3.40
2018-11-07T10:34:53.905Z,2.80
2018-11-07T10:35:53.872Z,3.00
2018-11-07T10:36:53.838Z,2.80
2018-11-07T10:37:53.834Z,3.00
2018-11-07T10:38:53.854Z,2.80
2018-11-07T10:39:53.751Z,2.90
2018-11-07T10:40:53.710Z,3.00
2018-11-07T10:41:53.674Z,3.10
2018-11-07T10:42:53.647Z,3.50
2018-11-07T10:43:53.734Z,3.40
2018-11-07T10:44:53.582Z,3.00
2018-11-07T10:45:53.582Z,2.70
2018-11-07T10:46:53.509Z,3.00
2018-11-07T10:47:53.478Z,2.80
2018-11-07T10:48:53.450Z,2.80
2018-11-07T10:49:53.421Z,2.90
2018-11-07T10:50:53.381Z,3.00
2018-11-07T10:51:53.396Z,3.10
2018-11-07T10:52:53.313Z,2.90
2018-11-07T10:53:53.287Z,2.50
2018-11-07T10:54:53.258Z,2.10
2018-11-07T10:55:53.222Z,3.20
2018-11-07T10:56:53.184Z,2.90
2018-11-07T10:57:53.231Z,3.40
2018-11-07T10:58:53.117Z,2.40
2018-11-07T10:59:53.104Z,3.40
2018-11-07T11:00:53.051Z,2.60
2018-11-07T11:01:53.019Z,2.70
2018-11-07T11:02:52.987Z,2.10
2018-11-07T11:03:52.952Z,2.60
2018-11-07T11:04:52.928Z,2.70
2018-11-07T11:05:52.899Z,2.00
2018-11-07T11:06:52.859Z,2.30
2018-11-07T11:07:52.825Z,2.00
2018-11-07T11:08:52.791Z,2.40
2018-11-07T11:09:52.764Z,2.50
2018-11-07T11:10:52.735Z,2.30
2018-11-07T11:11:52.695Z,2.20
2018-11-07T11:12:52.664Z,1.90
2018-11-07T11:13:52.630Z,2.30
2018-11-07T11:14:52.600Z,2.30
2018-11-07T11:15:52.577Z,2.10
2018-11-07T11:16:52.571Z,2.20
2018-11-07T11:17:52.500Z,2.30
2018-11-07T11:18:52.468Z,1.90
2018-11-07T11:19:52.436Z,2.40
2018-11-07T11:20:52.411Z,2.20
2018-11-07T11:21:52.370Z,1.70
2018-11-07T11:22:52.342Z,2.00
2018-11-07T11:23:52.321Z,2.60
2018-11-07T11:24:52.281Z,2.00
2018-11-07T11:25:52.313Z,2.00
2018-11-07T11:26:52.211Z,2.10
2018-11-07T11:27:52.182Z,1.60
2018-11-07T11:28:52.148Z,1.70
2018-11-07T11:29:52.112Z,1.80
2018-11-07T11:30:52.137Z,1.70
2018-11-07T11:31:52.604Z,1.80
2018-11-07T11:32:52.015Z,1.60
2018-11-07T11:33:52.061Z,1.50
2018-11-07T11:34:52.072Z,1.80
2018-11-07T11:35:51.921Z,1.30
2018-11-07T11:36:51.898Z,1.60
2018-11-07T11:37:51.856Z,1.40
2018-11-07T11:38:51.824Z,1.20
2018-11-07T11:39:51.793Z,1.20
2018-11-07T11:40:51.812Z,1.50
2018-11-07T11:41:51.746Z,1.30
2018-11-07T11:42:51.697Z,1.30
2018-11-07T11:43:51.665Z,1.40
2018-11-07T11:44:51.633Z,1.30
2018-11-07T11:45:51.601Z,1.20
2018-11-07T11:46:51.570Z,1.30
2018-11-07T11:47:51.546Z,1.20
2018-11-07T11:48:51.511Z,1.50
2018-11-07T11:49:51.478Z,1.50
2018-11-07T11:50:51.441Z,1.10
2018-11-07T11:51:51.414Z,1.00
2018-11-07T11:52:51.389Z,1.00
2018-11-07T11:53:51.345Z,1.30
2018-11-07T11:54:51.319Z,1.50
2018-11-07T11:55:51.287Z,1.40
2018-11-07T11:56:51.251Z,1.30
2018-11-07T11:57:51.233Z,1.10
2018-11-07T11:58:51.294Z,1.50
2018-11-07T11:59:51.428Z,1.00
2018-11-07T12:00:51.127Z,1.40
2018-11-07T12:01:51.093Z,1.50
2018-11-07T12:02:51.084Z,1.30
2018-11-07T12:03:51.038Z,1.60
2018-11-07T12:04:50.999Z,1.20
2018-11-07T12:05:50.967Z,1.30
2018-11-07T12:06:50.932Z,1.00
2018-11-07T12:07:50.903Z,1.60
2018-11-07T12:08:51.006Z,1.90
2018-11-07T12:09:50.840Z,2.40
2018-11-07T12:10:50.810Z,1.90
2018-11-07T12:11:50.830Z,1.00
2018-11-07T12:12:50.747Z,1.50
2018-11-07T12:13:50.731Z,1.20
2018-11-07T12:14:50.684Z,1.00
2018-11-07T12:15:50.656Z,1.10
2018-11-07T12:16:50.620Z,2.70
2018-11-07T12:17:50.594Z,3.70
2018-11-07T12:18:50.567Z,1.90
2018-11-07T12:19:50.530Z,1.50
2018-11-07T12:20:50.493Z,1.50
2018-11-07T12:21:50.465Z,1.10
2018-11-07T12:22:50.432Z,1.20
2018-11-07T12:23:50.408Z,1.50
2018-11-07T12:24:50.369Z,1.50
2018-11-07T12:25:50.335Z,1.40
2018-11-07T12:26:50.374Z,1.30
2018-11-07T12:27:50.275Z,1.00
2018-11-07T12:28:50.264Z,1.20
2018-11-07T12:29:50.213Z,1.30
2018-11-07T12:30:50.176Z,1.40
2018-11-07T12:31:50.149Z,1.80
2018-11-07T12:32:50.117Z,1.30
2018-11-07T12:33:50.088Z,1.00
2018-11-07T12:34:50.065Z,1.10
2018-11-07T12:35:50.024Z,1.20
2018-11-07T12:36:49.996Z,1.60
2018-11-07T12:37:49.961Z,1.10
2018-11-07T12:38:49.931Z,1.20
2018-11-07T12:39:49.922Z,0.90
2018-11-07T12:40:49.870Z,1.20
2018-11-07T12:41:49.835Z,1.70
2018-11-07T12:42:49.845Z,1.90
2018-11-07T12:43:49.775Z,1.50
2018-11-07T12:44:49.742Z,1.40
2018-11-07T12:45:49.720Z,1.80
2018-11-07T12:46:49.679Z,1.40
2018-11-07T12:47:49.648Z,1.20
2018-11-07T12:48:49.618Z,1.30
2018-11-07T12:49:49.675Z,1.20
2018-11-07T12:50:49.566Z,1.30
2018-11-07T12:51:49.524Z,1.20
2018-11-07T12:52:49.494Z,1.40
2018-11-07T12:53:49.464Z,3.30
2018-11-07T12:54:49.431Z,1.80
2018-11-07T12:55:49.409Z,1.90
2018-11-07T12:56:49.369Z,2.50
2018-11-07T12:57:49.396Z,1.70
2018-11-07T12:58:49.307Z,1.60
2018-11-07T12:59:49.275Z,1.60
2018-11-07T13:00:49.252Z,1.40